Time;durP1;ratioP1;P1;durP2;ratioP2;P2;SDS_P1;SDS_P2;PMS_P1;PMS_P2;Temp;Humidity;BMP_temperature;BMP_pressure;BME280_temperature;BME280_humidity;BME280_pressure;Samples;Min_cycle;Max_cycle;Signal;HPM_P1;HPM_P2
2022/06/09 00:00:01;;;;;;;4.47;1.38;;;14.20;99.90;;;;;;4993826;28;20046;-65
2022/06/09 00:02:30;;;;;;;11.05;1.92;;;14.10;99.90;;;;;;4993617;28;20081;-65
2022/06/09 00:04:57;;;;;;;9.40;2.10;;;14.10;99.90;;;;;;4993858;28;20121;-65
2022/06/09 00:07:24;;;;;;;9.07;2.35;;;14.10;99.90;;;;;;4993651;28;20126;-65
2022/06/09 00:09:56;;;;;;;7.57;1.80;;;14.10;99.90;;;;;;4993686;28;20844;-65
2022/06/09 00:12:23;;;;;;;9.27;1.60;;;14.10;99.90;;;;;;4993621;28;20121;-65
2022/06/09 00:14:49;;;;;;;8.48;1.95;;;14.10;99.90;;;;;;4993583;28;20100;-64
2022/06/09 00:17:15;;;;;;;11.07;1.90;;;14.10;99.90;;;;;;4993732;28;20038;-65
2022/06/09 00:19:41;;;;;;;9.02;2.50;;;14.10;99.90;;;;;;4993497;28;20111;-65
2022/06/09 00:22:07;;;;;;;10.80;1.77;;;14.10;99.90;;;;;;4993582;28;20053;-65
2022/06/09 00:24:32;;;;;;;11.40;2.83;;;14.10;99.90;;;;;;4993663;28;20038;-65
2022/06/09 00:26:58;;;;;;;11.98;2.10;;;14.00;99.90;;;;;;4993583;28;20042;-64
2022/06/09 00:29:24;;;;;;;9.00;2.33;;;14.00;99.90;;;;;;4993394;28;20118;-65
2022/06/09 00:31:50;;;;;;;11.43;1.83;;;14.00;99.90;;;;;;4993566;28;20125;-64
2022/06/09 00:34:15;;;;;;;13.73;2.65;;;14.00;99.90;;;;;;4993561;28;20042;-65
2022/06/09 00:36:41;;;;;;;11.85;2.30;;;14.00;99.90;;;;;;4997202;28;20050;-64
2022/06/09 00:39:07;;;;;;;10.20;2.00;;;13.90;99.90;;;;;;4997532;28;20121;-65
2022/06/09 00:41:41;;;;;;;14.88;2.70;;;14.00;99.90;;;;;;4997478;28;20042;-65
2022/06/09 00:44:14;;;;;;;14.88;2.85;;;14.00;99.90;;;;;;4997362;28;20038;-64
2022/06/09 00:46:40;;;;;;;7.22;1.90;;;14.00;99.90;;;;;;4997277;28;20034;-65
2022/06/09 00:49:24;;;;;;;12.45;2.08;;;14.00;99.90;;;;;;4997071;28;20042;-64
2022/06/09 00:51:59;;;;;;;11.70;2.58;;;14.00;99.90;;;;;;4996951;28;20044;-65
2022/06/09 00:54:30;;;;;;;15.05;3.10;;;13.90;99.90;;;;;;4997063;28;20046;-65
2022/06/09 00:57:11;;;;;;;12.80;2.00;;;13.90;99.90;;;;;;4997275;28;20478;-65
2022/06/09 00:59:41;;;;;;;17.13;2.75;;;13.90;99.90;;;;;;4997128;28;20046;-65
2022/06/09 01:02:09;;;;;;;8.93;2.17;;;13.90;99.90;;;;;;4997158;28;20050;-65
2022/06/09 01:04:36;;;;;;;12.10;2.40;;;13.90;99.90;;;;;;4996996;28;20640;-64
2022/06/09 01:07:08;;;;;;;10.52;2.38;;;13.90;99.90;;;;;;4996858;28;20046;-64
2022/06/09 01:09:35;;;;;;;14.57;2.88;;;13.90;99.90;;;;;;4996901;28;20038;-65
2022/06/09 01:12:01;;;;;;;16.58;2.50;;;13.80;99.90;;;;;;4996908;28;20449;-65
2022/06/09 01:14:30;;;;;;;11.80;2.75;;;13.70;99.90;;;;;;4996866;28;20650;-65
2022/06/09 01:17:04;;;;;;;12.10;2.20;;;13.70;99.90;;;;;;4996811;28;20595;-65
2022/06/09 01:19:59;;;;;;;15.43;2.47;;;13.70;99.90;;;;;;4994929;28;20043;-65
2022/06/09 01:22:45;;;;;;;13.82;2.40;;;13.80;99.90;;;;;;4996751;28;20089;-65
2022/06/09 01:25:35;;;;;;;10.65;2.78;;;13.70;99.90;;;;;;4996862;28;20046;-65
2022/06/09 01:28:15;;;;;;;22.23;4.00;;;13.70;99.90;;;;;;4996766;28;20038;-65
2022/06/09 01:30:53;;;;;;;16.85;3.17;;;13.70;99.90;;;;;;4996774;28;20071;-65
2022/06/09 01:33:44;;;;;;;19.73;3.22;;;13.70;99.90;;;;;;4996408;28;20042;-65
2022/06/09 01:36:21;;;;;;;;;;;13.70;99.90;;;;;;4996657;28;20088;-65
2022/06/09 01:38:57;;;;;;;20.73;3.42;;;13.70;99.90;;;;;;4996540;28;20287;-65
2022/06/09 01:41:24;;;;;;;14.20;2.85;;;13.70;99.90;;;;;;4996489;28;20155;-65
2022/06/09 01:43:53;;;;;;;13.38;2.70;;;13.70;99.90;;;;;;4996146;28;20074;-65
2022/06/09 01:46:34;;;;;;;24.73;3.42;;;13.70;99.90;;;;;;4995437;28;20069;-65
2022/06/09 01:49:10;;;;;;;19.25;3.28;;;13.70;99.90;;;;;;4996097;28;20089;-65
2022/06/09 01:51:41;;;;;;;14.52;2.90;;;13.60;99.90;;;;;;4996063;28;20181;-65
2022/06/09 01:54:21;;;;;;;25.02;3.35;;;13.60;99.90;;;;;;4996091;28;20124;-65
2022/06/09 01:57:07;;;;;;;16.13;2.95;;;13.60;99.90;;;;;;4995704;28;20054;-65
2022/06/09 02:00:09;;;;;;;19.05;3.28;;;13.60;99.90;;;;;;4995771;28;20042;-65
2022/06/09 02:02:45;;;;;;;18.42;3.63;;;13.60;99.90;;;;;;4993520;28;20097;-65
2022/06/09 02:05:20;;;;;;;17.08;3.13;;;13.60;99.90;;;;;;4995878;28;20042;-65
2022/06/09 02:07:49;;;;;;;11.93;2.63;;;13.60;99.90;;;;;;4995900;28;20046;-65
2022/06/09 02:10:31;;;;;;;18.77;3.13;;;13.60;99.90;;;;;;4995691;28;20046;-65
2022/06/09 02:13:07;;;;;;;15.32;3.30;;;13.60;99.90;;;;;;4995990;28;20116;-65
2022/06/09 02:15:38;;;;;;;14.70;2.97;;;13.60;99.90;;;;;;4995568;28;20056;-64
2022/06/09 02:18:08;;;;;;;;;;;13.50;99.90;;;;;;4996328;28;20038;-65
2022/06/09 02:20:36;;;;;;;15.63;3.08;;;13.60;99.90;;;;;;4995592;28;19914;-64
2022/06/09 02:23:02;;;;;;;15.85;3.60;;;13.60;99.90;;;;;;4995522;28;20437;-65
2022/06/09 02:25:28;;;;;;;13.93;2.97;;;13.60;99.90;;;;;;4995730;28;20108;-65
2022/06/09 02:27:54;;;;;;;16.77;3.80;;;13.60;99.90;;;;;;4995560;28;20046;-64
2022/06/09 02:30:20;;;;;;;13.35;3.25;;;13.50;99.90;;;;;;4995291;28;20038;-65
2022/06/09 02:32:46;;;;;;;25.20;5.38;;;13.60;99.90;;;;;;4995705;28;20510;-65
2022/06/09 02:35:11;;;;;;;20.13;3.05;;;13.60;99.90;;;;;;4995356;28;20168;-65
2022/06/09 02:37:37;;;;;;;22.38;3.80;;;13.60;99.90;;;;;;4995365;28;20041;-65
2022/06/09 02:40:03;;;;;;;25.88;4.22;;;13.50;99.90;;;;;;4995006;28;20045;-65
2022/06/09 02:42:32;;;;;;;20.27;3.90;;;13.50;99.90;;;;;;4995104;28;20540;-65
2022/06/09 02:44:58;;;;;;;17.60;3.97;;;13.40;99.90;;;;;;4995262;28;20410;-65
2022/06/09 02:47:23;;;;;;;18.98;3.83;;;13.40;99.90;;;;;;4995165;28;20030;-65
2022/06/09 02:49:49;;;;;;;18.52;3.85;;;13.50;99.90;;;;;;4994934;28;20073;-65
2022/06/09 02:52:15;;;;;;;20.77;3.58;;;13.50;99.90;;;;;;4994945;28;20047;-65
2022/06/09 02:54:41;;;;;;;19.35;3.33;;;13.40;99.90;;;;;;4994849;28;20133;-65
2022/06/09 02:57:06;;;;;;;19.35;4.10;;;13.40;99.90;;;;;;4994875;28;20054;-65
2022/06/09 02:59:32;;;;;;;25.15;3.75;;;13.50;99.90;;;;;;4994482;28;20198;-64
2022/06/09 03:01:58;;;;;;;24.42;4.85;;;13.40;99.90;;;;;;4994853;28;20039;-65
2022/06/09 03:04:24;;;;;;;22.30;4.38;;;13.40;99.90;;;;;;4994726;28;20042;-65
2022/06/09 03:06:49;;;;;;;15.13;3.25;;;13.40;99.90;;;;;;4990933;28;20123;-65
2022/06/09 03:09:15;;;;;;;20.55;4.07;;;13.40;99.90;;;;;;4992474;28;20105;-65
2022/06/09 03:11:41;;;;;;;21.80;3.75;;;13.40;99.90;;;;;;4993815;28;20073;-65
2022/06/09 03:14:08;;;;;;;22.17;3.60;;;13.40;99.90;;;;;;4994554;28;20467;-65
2022/06/09 03:16:34;;;;;;;17.92;3.40;;;13.40;99.90;;;;;;4994557;28;20453;-65
2022/06/09 03:18:59;;;;;;;19.40;3.38;;;13.40;99.90;;;;;;4994532;28;20042;-65
2022/06/09 03:21:25;;;;;;;20.83;3.72;;;13.40;99.90;;;;;;4994516;28;20049;-65
2022/06/09 03:23:51;;;;;;;21.10;3.50;;;13.40;99.90;;;;;;4994536;28;20097;-64
2022/06/09 03:26:17;;;;;;;25.30;4.15;;;13.40;99.90;;;;;;4994616;28;20045;-64
2022/06/09 03:28:43;;;;;;;19.38;3.72;;;13.40;99.90;;;;;;4994409;28;20045;-65
2022/06/09 03:31:09;;;;;;;16.88;3.72;;;13.50;99.90;;;;;;4994285;28;20093;-64
2022/06/09 03:33:34;;;;;;;17.05;3.28;;;13.40;99.90;;;;;;4994168;28;20046;-65
2022/06/09 03:36:02;;;;;;;23.23;4.07;;;13.40;99.90;;;;;;4994041;28;20054;-64
2022/06/09 03:38:28;;;;;;;22.23;4.28;;;13.40;99.90;;;;;;4994239;28;20093;-65
2022/06/09 03:40:54;;;;;;;18.25;4.13;;;13.40;99.90;;;;;;4994352;28;20042;-65
2022/06/09 03:43:20;;;;;;;21.48;3.72;;;13.40;99.90;;;;;;4994020;28;20049;-65
2022/06/09 03:45:45;;;;;;;17.13;3.17;;;13.40;99.90;;;;;;4994202;28;20045;-65
2022/06/09 03:48:11;;;;;;;19.23;3.55;;;13.40;99.90;;;;;;4994104;28;20829;-65
2022/06/09 03:50:37;;;;;;;16.60;3.20;;;13.40;99.90;;;;;;4994374;28;20038;-65
2022/06/09 03:53:03;;;;;;;28.63;4.05;;;13.40;99.90;;;;;;4993824;28;20493;-64
2022/06/09 03:55:28;;;;;;;20.13;3.92;;;13.40;99.90;;;;;;4993499;28;20409;-65
2022/06/09 03:57:54;;;;;;;21.90;4.13;;;13.30;99.90;;;;;;4993744;28;20177;-64
2022/06/09 04:00:25;;;;;;;23.63;4.65;;;13.30;99.90;;;;;;4993673;28;20045;-64
2022/06/09 04:02:51;;;;;;;23.52;4.45;;;13.30;99.90;;;;;;4993841;28;20069;-65
2022/06/09 04:05:17;;;;;;;18.95;3.53;;;13.30;99.90;;;;;;4993914;28;20050;-64
2022/06/09 04:07:43;;;;;;;16.73;4.15;;;13.30;99.90;;;;;;4993722;28;20665;-65
2022/06/09 04:10:19;;;;;;;29.63;5.07;;;13.30;99.90;;;;;;4992232;28;20038;-64
2022/06/09 04:12:45;;;;;;;22.88;3.67;;;13.30;99.90;;;;;;4974242;28;20042;-65
2022/06/09 04:15:11;;;;;;;21.02;3.75;;;13.30;99.90;;;;;;4974458;28;20061;-65
2022/06/09 04:17:37;;;;;;;28.67;4.82;;;13.30;99.90;;;;;;4974231;28;20125;-65
2022/06/09 04:20:03;;;;;;;21.98;4.18;;;13.30;99.90;;;;;;4974266;28;20072;-65
2022/06/09 04:22:29;;;;;;;23.92;4.25;;;13.30;99.90;;;;;;4974174;28;20043;-65
2022/06/09 04:24:55;;;;;;;25.10;4.20;;;13.40;99.90;;;;;;4974094;28;20042;-64
2022/06/09 04:27:21;;;;;;;20.75;3.67;;;13.30;99.90;;;;;;4974092;28;20567;-65
2022/06/09 04:29:47;;;;;;;39.17;4.95;;;13.30;99.90;;;;;;4974108;28;20035;-65
2022/06/09 04:32:12;;;;;;;32.40;4.75;;;13.40;99.90;;;;;;4974072;28;20046;-65
2022/06/09 04:34:38;;;;;;;24.50;4.70;;;13.30;99.90;;;;;;4973974;28;20046;-65
2022/06/09 04:37:04;;;;;;;26.08;4.78;;;13.40;99.90;;;;;;4974022;28;20054;-65
2022/06/09 04:39:30;;;;;;;23.15;4.07;;;13.30;99.90;;;;;;4974061;28;20618;-64
2022/06/09 04:41:56;;;;;;;14.70;3.28;;;13.30;99.90;;;;;;4987016;28;20493;-64
2022/06/09 04:44:21;;;;;;;22.52;4.35;;;13.30;99.90;;;;;;4992677;28;20494;-65
2022/06/09 04:46:47;;;;;;;17.33;3.58;;;13.30;99.90;;;;;;4993495;28;20041;-66
2022/06/09 04:49:13;;;;;;;21.95;4.20;;;13.40;99.90;;;;;;4993361;28;20038;-66
2022/06/09 04:51:39;;;;;;;20.38;3.55;;;13.40;99.90;;;;;;4993244;28;20038;-66
2022/06/09 04:54:04;;;;;;;19.30;3.72;;;13.40;99.90;;;;;;4993371;28;20073;-65
2022/06/09 04:56:30;;;;;;;23.20;3.97;;;13.40;99.90;;;;;;4982112;28;20054;-65
2022/06/09 04:58:56;;;;;;;27.02;4.68;;;13.40;99.90;;;;;;4973975;28;20057;-66
2022/06/09 05:01:24;;;;;;;21.63;3.92;;;13.40;99.90;;;;;;4973172;28;20042;-66
2022/06/09 05:03:51;;;;;;;23.05;4.75;;;13.30;99.90;;;;;;4972812;28;20039;-66
2022/06/09 05:06:19;;;;;;;31.70;3.90;;;13.30;99.90;;;;;;4973933;28;20066;-65
2022/06/09 05:08:48;;;;;;;22.42;3.83;;;13.30;99.90;;;;;;4973893;28;20087;-65
2022/06/09 05:11:15;;;;;;;28.50;3.75;;;13.30;99.90;;;;;;4973392;28;20039;-66
2022/06/09 05:13:41;;;;;;;18.33;4.13;;;13.30;99.90;;;;;;4973736;28;20043;-66
2022/06/09 05:16:08;;;;;;;22.45;4.43;;;13.40;99.90;;;;;;4973554;28;20078;-66
2022/06/09 05:18:34;;;;;;;26.98;4.72;;;13.40;99.90;;;;;;4973811;28;20427;-66
2022/06/09 05:21:01;;;;;;;18.05;3.97;;;13.40;99.90;;;;;;4973529;28;20494;-66
2022/06/09 05:23:28;;;;;;;19.30;3.55;;;13.40;99.90;;;;;;4977362;28;20169;-66
2022/06/09 05:25:56;;;;;;;32.50;5.03;;;13.40;99.90;;;;;;4977060;28;20043;-66
2022/06/09 05:28:23;;;;;;;24.05;4.10;;;13.40;99.90;;;;;;4976915;28;20394;-66
2022/06/09 05:30:49;;;;;;;20.55;3.80;;;13.30;99.90;;;;;;4981277;28;20572;-66
2022/06/09 05:33:15;;;;;;;21.23;3.65;;;13.40;99.90;;;;;;4993848;28;20096;-65
2022/06/09 05:35:41;;;;;;;15.60;3.72;;;13.40;99.90;;;;;;4994806;28;20054;-66
2022/06/09 05:46:24;;;;;;;21.55;3.63;;;13.50;99.90;;;;;;4995245;28;20058;-66
2022/06/09 05:48:50;;;;;;;24.00;3.75;;;13.40;99.90;;;;;;4995256;28;20038;-65
2022/06/09 05:51:17;;;;;;;16.02;3.42;;;13.30;99.90;;;;;;4995330;28;20052;-65
2022/06/09 05:53:44;;;;;;;14.88;3.28;;;13.30;99.90;;;;;;4996226;28;20042;-66
2022/06/09 05:56:10;;;;;;;20.65;3.90;;;13.30;99.90;;;;;;4996295;28;20477;-66
2022/06/09 05:58:36;;;;;;;12.80;3.10;;;13.40;99.90;;;;;;4995951;28;20053;-66
2022/06/09 06:01:05;;;;;;;12.68;2.50;;;13.40;99.90;;;;;;4995917;28;20046;-66
2022/06/09 06:03:32;;;;;;;18.10;3.33;;;13.40;99.90;;;;;;4995795;28;20053;-66
2022/06/09 06:08:42;;;;;;;12.18;2.83;;;13.40;99.90;;;;;;4995981;28;20394;-66
2022/06/09 06:11:08;;;;;;;10.05;2.50;;;13.40;99.90;;;;;;4995235;28;20045;-66
2022/06/09 06:13:34;;;;;;;15.35;2.58;;;13.40;99.90;;;;;;4995566;28;20105;-66
2022/06/09 06:15:59;;;;;;;9.77;2.08;;;13.40;99.90;;;;;;4992857;28;20077;-66
2022/06/09 06:18:26;;;;;;;13.23;2.17;;;13.50;99.90;;;;;;4993244;28;20042;-66
2022/06/09 06:20:53;;;;;;;9.63;2.25;;;13.50;99.90;;;;;;4993890;28;20038;-66
2022/06/09 06:23:19;;;;;;;11.15;2.30;;;13.60;99.90;;;;;;4993428;28;20050;-66
2022/06/09 06:25:45;;;;;;;15.82;2.97;;;13.50;99.90;;;;;;4993826;28;20100;-66
2022/06/09 06:28:11;;;;;;;11.82;2.55;;;13.60;99.90;;;;;;4993841;28;20072;-66
2022/06/09 06:30:36;;;;;;;18.60;3.70;;;13.60;99.90;;;;;;4994581;28;20050;-66
2022/06/09 06:33:02;;;;;;;12.35;2.70;;;13.70;99.90;;;;;;4994981;28;20520;-66
2022/06/09 06:35:28;;;;;;;14.32;3.45;;;13.70;99.90;;;;;;4995212;28;20057;-66
2022/06/09 06:37:54;;;;;;;11.05;2.70;;;13.70;99.90;;;;;;4991743;28;20038;-66
2022/06/09 06:40:20;;;;;;;19.58;2.30;;;13.60;99.90;;;;;;4995374;28;20575;-66
2022/06/09 06:42:46;;;;;;;14.57;2.65;;;13.50;99.90;;;;;;4995609;28;20061;-66
2022/06/09 06:45:13;;;;;;;14.35;2.65;;;13.60;99.90;;;;;;4995686;28;20084;-66
2022/06/09 06:47:39;;;;;;;13.32;2.95;;;13.60;99.90;;;;;;4995327;28;20197;-65
2022/06/09 06:50:07;;;;;;;11.02;2.50;;;13.60;99.90;;;;;;4994571;28;20038;-65
2022/06/09 06:52:32;;;;;;;17.20;2.97;;;13.70;99.90;;;;;;4995212;28;20042;-64
2022/06/09 06:54:58;;;;;;;11.63;2.65;;;13.90;99.90;;;;;;4994811;28;20056;-65
2022/06/09 06:57:25;;;;;;;9.52;2.28;;;13.90;99.90;;;;;;4994998;28;20046;-65
2022/06/09 06:59:51;;;;;;;18.77;3.17;;;13.90;99.90;;;;;;4995058;28;20069;-65
2022/06/09 07:02:18;;;;;;;8.48;2.10;;;13.90;99.90;;;;;;4994860;28;20044;-65
2022/06/09 07:04:44;;;;;;;19.27;3.03;;;14.00;99.90;;;;;;4994845;28;20057;-65
2022/06/09 07:07:11;;;;;;;13.20;2.15;;;13.90;99.90;;;;;;4994837;28;20501;-64
2022/06/09 07:09:37;;;;;;;12.68;2.63;;;14.30;99.90;;;;;;4985580;28;20122;-64
2022/06/09 07:12:04;;;;;;;12.38;1.92;;;14.30;99.90;;;;;;4989899;28;20050;-65
2022/06/09 07:14:29;;;;;;;6.43;2.13;;;14.20;99.90;;;;;;4994595;28;20046;-65
2022/06/09 07:16:55;;;;;;;13.80;2.05;;;13.90;99.90;;;;;;4994340;28;20050;-65
2022/06/09 07:19:21;;;;;;;10.10;1.95;;;14.10;99.90;;;;;;4994710;28;20035;-65
2022/06/09 07:21:47;;;;;;;10.32;1.77;;;14.30;99.90;;;;;;4994575;28;20042;-65
2022/06/09 07:24:13;;;;;;;10.25;2.03;;;14.80;99.90;;;;;;4994574;28;20042;-65
2022/06/09 07:26:38;;;;;;;12.18;2.10;;;15.00;99.90;;;;;;4994593;28;20038;-64
2022/06/09 07:29:04;;;;;;;8.20;2.30;;;14.50;99.90;;;;;;4994275;28;20069;-65
2022/06/09 07:31:30;;;;;;;5.93;1.95;;;14.20;99.90;;;;;;4994160;28;20038;-65
2022/06/09 07:33:56;;;;;;;12.38;2.45;;;14.50;99.90;;;;;;4994146;28;20048;-64
2022/06/09 07:36:24;;;;;;;7.35;1.90;;;14.70;99.90;;;;;;4993924;28;20050;-65
2022/06/09 07:38:50;;;;;;;10.00;2.15;;;14.60;99.90;;;;;;4993778;28;20045;-65
2022/06/09 07:41:19;;;;;;;8.50;1.90;;;14.50;99.90;;;;;;4994216;28;20034;-65
2022/06/09 07:43:46;;;;;;;10.60;2.33;;;14.50;99.90;;;;;;4994020;28;20046;-65
2022/06/09 07:46:12;;;;;;;9.00;2.03;;;14.70;99.90;;;;;;4993378;28;20042;-64
2022/06/09 07:48:38;;;;;;;7.85;1.52;;;14.60;99.90;;;;;;4994069;28;20117;-65
2022/06/09 07:51:04;;;;;;;37.20;3.35;;;14.40;99.90;;;;;;4994103;28;20049;-64
2022/06/09 07:53:30;;;;;;;9.20;1.67;;;14.40;99.90;;;;;;4994010;28;20046;-65
2022/06/09 07:55:56;;;;;;;5.65;1.15;;;14.20;99.90;;;;;;4993938;28;20080;-65
2022/06/09 07:58:22;;;;;;;1.67;0.77;;;14.10;99.90;;;;;;4993906;28;20038;-65
2022/06/09 08:00:48;;;;;;;1.63;0.40;;;14.10;99.90;;;;;;4993663;28;20038;-65
2022/06/09 08:03:21;;;;;;;4.07;0.50;;;13.60;99.90;;;;;;4993907;28;20049;-65
2022/06/09 08:05:47;;;;;;;5.38;0.75;;;13.60;99.90;;;;;;4993847;28;20045;-65
2022/06/09 08:08:13;;;;;;;3.28;0.90;;;13.60;99.90;;;;;;4994016;28;20038;-65
2022/06/09 08:10:40;;;;;;;1.52;0.60;;;13.70;99.90;;;;;;4993923;28;20053;-65
2022/06/09 08:13:05;;;;;;;3.38;0.50;;;13.80;99.90;;;;;;4993931;28;20053;-64
2022/06/09 08:15:32;;;;;;;2.53;0.70;;;13.90;99.90;;;;;;4993625;28;20054;-65
2022/06/09 08:17:59;;;;;;;3.03;0.68;;;14.00;99.90;;;;;;4993663;28;20034;-65
2022/06/09 08:20:32;;;;;;;4.05;0.85;;;13.90;99.90;;;;;;4993771;28;20042;-64
2022/06/09 08:23:12;;;;;;;3.50;1.30;;;13.90;99.90;;;;;;4993834;28;20050;-64
2022/06/09 08:25:39;;;;;;;;;;;13.80;99.90;;;;;;4994113;28;20046;-64
2022/06/09 08:28:05;;;;;;;3.28;0.85;;;13.90;99.90;;;;;;4993675;28;19917;-65
2022/06/09 08:30:32;;;;;;;5.95;0.98;;;14.00;99.90;;;;;;4993863;28;20445;-64
2022/06/09 08:32:58;;;;;;;4.65;1.10;;;14.70;99.90;;;;;;4993570;28;20104;-65
2022/06/09 08:35:25;;;;;;;2.67;0.90;;;14.50;99.90;;;;;;4993559;28;20133;-65
2022/06/09 08:37:51;;;;;;;3.13;0.70;;;14.50;99.90;;;;;;4993484;28;20046;-65
2022/06/09 08:40:43;;;;;;;2.03;0.60;;;14.50;99.90;;;;;;4993525;28;20045;-65
2022/06/09 08:43:43;;;;;;;2.20;0.80;;;14.70;99.90;;;;;;4993485;28;20034;-65
2022/06/09 08:46:28;;;;;;;5.25;1.02;;;15.00;99.90;;;;;;4992287;28;20065;-64
2022/06/09 08:48:56;;;;;;;3.83;0.90;;;15.10;99.90;;;;;;4963699;28;20085;-64
2022/06/09 08:51:40;;;;;;;4.00;0.98;;;15.00;99.90;;;;;;4973829;28;20089;-65
2022/06/09 08:54:17;;;;;;;3.33;1.02;;;14.90;99.90;;;;;;4973800;28;20446;-64
2022/06/09 08:56:45;;;;;;;8.15;1.42;;;14.90;99.90;;;;;;4975755;28;20085;-64
2022/06/09 08:59:15;;;;;;;3.85;0.90;;;15.00;99.90;;;;;;4977877;28;20417;-65
2022/06/09 09:01:42;;;;;;;3.30;1.27;;;14.90;99.90;;;;;;4977707;28;20096;-65
2022/06/09 09:04:11;;;;;;;6.05;1.50;;;15.00;99.90;;;;;;4977783;28;20565;-64
2022/06/09 09:06:46;;;;;;;6.90;1.52;;;15.10;99.90;;;;;;4977875;28;20482;-65
2022/06/09 09:09:23;;;;;;;6.82;1.30;;;15.30;99.90;;;;;;4977769;28;20038;-65
2022/06/09 09:12:07;;;;;;;6.63;1.35;;;15.30;99.90;;;;;;4977588;28;20095;-65
2022/06/09 09:14:39;;;;;;;13.02;2.20;;;15.40;99.90;;;;;;4977561;28;20064;-65
2022/06/09 09:17:28;;;;;;;16.50;2.03;;;15.50;99.90;;;;;;4977620;28;20054;-64
2022/06/09 09:20:06;;;;;;;10.43;2.63;;;15.70;99.90;;;;;;4977573;28;20039;-65
2022/06/09 09:22:50;;;;;;;10.00;2.38;;;15.90;99.90;;;;;;4977467;28;20091;-65
2022/06/09 09:25:42;;;;;;;7.45;2.55;;;16.00;99.90;;;;;;4977333;28;20042;-65
2022/06/09 09:28:23;;;;;;;11.85;2.13;;;16.20;99.90;;;;;;4977575;28;20062;-65
2022/06/09 09:31:26;;;;;;;6.22;1.80;;;15.70;99.90;;;;;;4977320;28;20039;-64
2022/06/09 09:33:52;;;;;;;11.23;1.85;;;15.80;99.90;;;;;;4977252;28;20137;-65
2022/06/09 09:36:22;;;;;;;9.77;2.45;;;15.50;99.90;;;;;;4977065;28;20605;-65
2022/06/09 09:39:16;;;;;;;7.88;1.65;;;15.70;99.90;;;;;;4977249;28;20035;-65
2022/06/09 09:41:44;;;;;;;11.75;1.85;;;15.80;99.90;;;;;;4976945;28;20138;-65
2022/06/09 09:44:23;;;;;;;10.68;2.05;;;15.80;99.90;;;;;;4976925;28;20031;-64
2022/06/09 09:46:55;;;;;;;8.85;1.67;;;15.60;99.90;;;;;;4976925;28;20038;-64
2022/06/09 09:49:39;;;;;;;16.08;2.53;;;15.80;99.90;;;;;;4988090;28;20049;-65
2022/06/09 09:52:37;;;;;;;12.80;2.05;;;16.20;99.90;;;;;;4996504;28;20414;-64
2022/06/09 09:55:20;;;;;;;7.35;2.00;;;16.20;99.90;;;;;;4996266;28;20050;-65
2022/06/09 09:57:46;;;;;;;7.72;2.03;;;16.50;99.90;;;;;;4996372;28;20077;-65
2022/06/09 10:00:27;;;;;;;11.75;2.03;;;16.80;99.90;;;;;;4996236;28;20494;-65
2022/06/09 10:08:40;;;;;;;13.30;2.45;;;18.50;99.90;;;;;;4995009;28;20041;-65
2022/06/09 10:13:53;;;;;;;9.30;2.03;;;18.40;99.90;;;;;;4995940;28;20042;-65
2022/06/09 10:16:21;;;;;;;7.35;1.45;;;18.30;99.90;;;;;;4996121;28;20054;-65
2022/06/09 10:18:53;;;;;;;8.07;1.77;;;18.50;99.90;;;;;;4995770;28;20034;-65
2022/06/09 10:21:19;;;;;;;11.95;1.98;;;18.90;99.90;;;;;;4995795;28;20046;-65
2022/06/09 10:24:07;;;;;;;9.50;1.88;;;18.10;99.90;;;;;;4995829;28;20042;-65
2022/06/09 10:26:37;;;;;;;12.45;1.58;;;17.90;99.90;;;;;;4995747;28;20042;-65
2022/06/09 10:29:21;;;;;;;8.93;1.35;;;18.50;99.90;;;;;;4995723;28;20045;-65
2022/06/09 10:31:55;;;;;;;8.20;1.58;;;18.40;99.90;;;;;;4995610;28;20038;-64
2022/06/09 10:35:00;;;;;;;5.72;1.35;;;18.30;99.90;;;;;;4995454;28;20042;-65
2022/06/09 10:37:38;;;;;;;6.13;1.40;;;17.80;99.90;;;;;;4995209;28;20053;-64
2022/06/09 10:40:30;;;;;;;8.75;1.55;;;17.40;99.90;;;;;;4995617;28;20045;-65
2022/06/09 10:43:16;;;;;;;7.30;1.38;;;17.40;99.90;;;;;;4995532;28;20065;-65
2022/06/09 10:46:11;;;;;;;9.07;2.17;;;17.90;99.90;;;;;;4995428;28;20037;-65
2022/06/09 10:55:17;;;;;;;8.45;1.13;;;19.40;99.90;;;;;;4995139;28;20049;-64
2022/06/09 10:58:10;;;;;;;5.80;1.35;;;19.90;99.90;;;;;;4995196;28;20070;-65
2022/06/09 11:00:39;;;;;;;10.02;1.65;;;19.20;99.90;;;;;;4994792;28;20118;-65
2022/06/09 11:03:18;;;;;;;5.78;1.95;;;18.60;99.90;;;;;;4995123;28;20375;-64
2022/06/09 11:05:50;;;;;;;9.35;1.65;;;18.70;99.90;;;;;;4994944;28;20273;-64
2022/06/09 11:08:30;;;;;;;7.15;1.30;;;17.70;99.90;;;;;;4994775;28;20125;-65
2022/06/09 11:11:05;;;;;;;5.63;1.45;;;17.60;99.90;;;;;;4994668;28;20041;-64
2022/06/09 11:14:11;;;;;;;5.70;1.20;;;17.50;99.90;;;;;;4974715;28;20039;-64
2022/06/09 11:17:02;;;;;;;10.05;1.75;;;17.60;99.90;;;;;;4991854;28;20054;-64
2022/06/09 11:19:59;;;;;;;8.20;1.42;;;17.10;99.90;;;;;;4994559;28;20101;-65
2022/06/09 11:22:47;;;;;;;5.97;1.40;;;17.20;99.90;;;;;;4994609;28;20035;-65
2022/06/09 11:25:44;;;;;;;9.48;1.52;;;17.10;99.90;;;;;;4994050;28;20038;-65
2022/06/09 11:28:21;;;;;;;5.78;1.40;;;17.80;99.90;;;;;;4994836;28;20382;-66
2022/06/09 11:31:05;;;;;;;7.72;1.25;;;18.40;99.90;;;;;;4994430;28;20038;-65
2022/06/09 11:33:59;;;;;;;15.43;1.63;;;18.40;99.90;;;;;;4994393;28;20038;-65
2022/06/09 11:36:37;;;;;;;5.43;1.10;;;19.20;99.90;;;;;;4974727;28;20042;-66
2022/06/09 11:39:36;;;;;;;4.88;1.40;;;19.90;99.90;;;;;;4994123;28;20039;-66
2022/06/09 11:42:11;;;;;;;6.70;1.45;;;19.90;99.90;;;;;;4994373;28;20030;-65
2022/06/09 11:44:43;;;;;;;5.90;1.25;;;19.30;99.90;;;;;;4994225;28;20049;-64
2022/06/09 11:47:21;;;;;;;8.27;1.67;;;18.40;99.90;;;;;;4994097;28;20038;-65
2022/06/09 11:50:07;;;;;;;6.78;1.42;;;18.40;99.90;;;;;;4994072;28;20410;-65
2022/06/09 11:52:42;;;;;;;8.93;1.30;;;18.10;99.90;;;;;;4993886;28;20042;-65
2022/06/09 11:55:22;;;;;;;7.03;1.55;;;18.10;99.90;;;;;;4994051;28;20132;-65
2022/06/09 11:57:50;;;;;;;6.07;1.58;;;18.70;99.90;;;;;;4994060;28;20046;-65
2022/06/09 12:00:19;;;;;;;10.93;1.90;;;18.10;99.90;;;;;;4994020;28;20038;-65
2022/06/09 12:03:20;;;;;;;6.03;1.20;;;18.90;99.90;;;;;;4993993;28;20049;-65
2022/06/09 12:05:59;;;;;;;6.65;1.42;;;19.20;99.90;;;;;;4994062;28;20447;-66
2022/06/09 12:08:54;;;;;;;5.80;1.20;;;19.50;99.90;;;;;;4994024;28;20061;-65
2022/06/09 12:11:23;;;;;;;7.18;1.35;;;19.40;99.00;;;;;;4993490;28;20045;-65
2022/06/09 12:13:57;;;;;;;5.32;1.67;;;19.20;99.90;;;;;;4993827;28;20068;-65
2022/06/09 12:16:28;;;;;;;8.57;1.80;;;19.40;99.90;;;;;;4993843;28;20413;-66
2022/06/09 12:19:23;;;;;;;7.63;1.55;;;18.00;99.90;;;;;;4993688;28;20406;-65
2022/06/09 12:22:16;;;;;;;5.65;1.20;;;18.30;99.90;;;;;;4993458;28;20572;-66
2022/06/09 12:25:21;;;;;;;9.25;1.75;;;18.10;99.90;;;;;;4993247;28;20514;-65
2022/06/09 12:27:52;;;;;;;6.28;1.25;;;18.20;99.90;;;;;;4993530;28;20077;-66
2022/06/09 12:30:24;;;;;;;8.52;1.95;;;18.30;99.90;;;;;;4993194;28;20486;-65
2022/06/09 12:33:09;;;;;;;8.25;1.55;;;17.90;99.50;;;;;;4993606;28;20502;-65
2022/06/09 12:35:40;;;;;;;8.43;2.03;;;18.00;99.90;;;;;;4993321;28;20046;-65
2022/06/09 12:38:32;;;;;;;4.57;1.20;;;18.90;99.90;;;;;;4993591;28;20096;-66
2022/06/09 12:41:15;;;;;;;7.82;1.65;;;19.40;98.10;;;;;;4993641;28;20540;-65
2022/06/09 12:43:43;;;;;;;9.00;1.80;;;19.50;98.70;;;;;;4993528;28;20038;-65
2022/06/09 12:46:23;;;;;;;5.40;1.50;;;19.70;99.00;;;;;;4993573;28;20070;-65
2022/06/09 12:48:50;;;;;;;4.75;1.10;;;19.50;98.30;;;;;;4993444;28;20031;-66
2022/06/09 12:51:25;;;;;;;8.52;1.58;;;19.20;96.90;;;;;;4993416;28;20042;-66
2022/06/09 12:53:58;;;;;;;6.38;1.23;;;19.30;96.60;;;;;;4993541;28;20438;-65
2022/06/09 12:57:06;;;;;;;7.88;1.63;;;19.40;97.50;;;;;;4993395;28;20055;-65
2022/06/09 12:59:39;;;;;;;3.90;1.10;;;19.30;97.40;;;;;;4985333;28;20038;-65
2022/06/09 13:02:11;;;;;;;6.15;1.40;;;19.10;96.50;;;;;;4993510;28;20097;-65
2022/06/09 13:04:49;;;;;;;5.35;1.00;;;19.20;98.90;;;;;;4993317;28;20035;-66
2022/06/09 13:07:28;;;;;;;4.80;1.10;;;19.40;98.50;;;;;;4993333;28;20038;-66
2022/06/09 13:10:08;;;;;;;6.25;1.63;;;19.70;97.70;;;;;;4993560;28;20069;-66
2022/06/09 13:12:50;;;;;;;4.57;1.10;;;19.70;97.60;;;;;;4993330;28;20501;-65
2022/06/09 13:15:33;;;;;;;6.95;1.35;;;19.60;97.20;;;;;;4993097;28;20375;-65
2022/06/09 13:18:04;;;;;;;5.07;1.08;;;19.30;99.50;;;;;;4993130;28;20046;-66
2022/06/09 13:20:31;;;;;;;6.20;1.20;;;18.70;97.60;;;;;;4993209;28;20383;-66
2022/06/09 13:22:57;;;;;;;8.70;1.70;;;18.70;98.10;;;;;;4993129;28;20053;-65
2022/06/09 13:25:25;;;;;;;5.38;0.93;;;17.90;97.80;;;;;;4993239;28;20453;-65
2022/06/09 13:27:52;;;;;;;7.68;1.27;;;17.30;98.70;;;;;;4993251;28;20069;-66
2022/06/09 13:30:39;;;;;;;6.38;1.20;;;17.50;99.40;;;;;;4993296;28;20038;-65